Time;durP1;ratioP1;P1;durP2;ratioP2;P2;SDS_P1;SDS_P2;PMS_P1;PMS_P2;Temp;Humidity;BMP_temperature;BMP_pressure;BME280_temperature;BME280_humidity;BME280_pressure;Samples;Min_cycle;Max_cycle;Signal;HPM_P1;HPM_P2
2023/08/16 00:02:57;;;;;;;16.77;6.85;;;;;;;17.64;59.11;96845.72;6200847;28;20041;-72
2023/08/16 00:06:14;;;;;;;11.02;6.28;;;;;;;17.62;59.03;96849.50;6198840;28;20046;-75
2023/08/16 00:09:21;;;;;;;13.88;5.88;;;;;;;17.60;59.00;96854.13;6201324;28;20180;-73
2023/08/16 00:12:27;;;;;;;12.88;6.60;;;;;;;17.62;58.93;96844.19;6203981;28;20046;-75
2023/08/16 00:15:34;;;;;;;12.10;6.28;;;;;;;17.63;58.74;96846.66;6204182;28;20046;-74
2023/08/16 00:18:36;;;;;;;10.88;6.78;;;;;;;17.62;58.74;96849.50;6201302;28;20049;-75
2023/08/16 00:21:43;;;;;;;16.23;6.10;;;;;;;17.55;58.81;96851.91;6197513;28;20109;-73
2023/08/16 00:24:49;;;;;;;12.38;5.97;;;;;;;17.52;58.75;96860.16;6200930;28;20140;-73
2023/08/16 00:27:56;;;;;;;12.07;6.07;;;;;;;17.47;58.97;96854.44;6200402;28;20062;-73
2023/08/16 00:31:00;;;;;;;16.52;7.70;;;;;;;17.40;59.37;96862.13;6201166;28;20080;-75
2023/08/16 00:34:04;;;;;;;16.10;6.85;;;;;;;17.30;59.54;96866.63;6179786;28;20057;-73
2023/08/16 00:37:05;;;;;;;;;;;;;;;17.15;59.02;96865.38;6182654;28;20433;-75
2023/08/16 00:40:09;;;;;;;15.25;6.57;;;;;;;17.12;59.94;96857.69;6200423;28;19921;-74
2023/08/16 00:43:15;;;;;;;13.38;6.53;;;;;;;17.08;60.12;96861.59;6200330;28;20053;-74
2023/08/16 00:46:19;;;;;;;12.23;6.68;;;;;;;17.01;60.31;96870.16;6201488;28;20046;-73
2023/08/16 00:49:21;;;;;;;15.90;7.40;;;;;;;16.94;60.22;96860.19;6199783;28;20034;-74
2023/08/16 00:52:24;;;;;;;14.65;7.18;;;;;;;16.94;60.26;96866.34;6203323;28;20043;-74
2023/08/16 00:55:29;;;;;;;16.67;7.68;;;;;;;16.92;60.11;96873.63;6195550;28;20506;-74
2023/08/16 00:58:33;;;;;;;20.08;7.63;;;;;;;16.86;60.10;96860.06;6198168;28;20038;-74
2023/08/16 01:01:40;;;;;;;16.80;7.57;;;;;;;16.96;60.29;96864.41;6195990;28;20034;-74
2023/08/16 01:04:49;;;;;;;17.63;7.20;;;;;;;16.99;60.26;96873.91;6196006;28;20054;-75
2023/08/16 01:07:57;;;;;;;18.45;8.45;;;;;;;17.09;59.59;96873.91;6198228;28;20042;-73
2023/08/16 01:11:09;;;;;;;20.30;8.02;;;;;;;17.22;59.20;96874.47;6198527;28;20045;-74
2023/08/16 01:14:28;;;;;;;18.48;8.07;;;;;;;17.40;59.05;96880.75;6201946;28;20042;-75
2023/08/16 01:17:33;;;;;;;22.67;9.38;;;;;;;17.49;58.63;96882.56;6198628;28;20041;-72
2023/08/16 01:20:36;;;;;;;17.20;8.35;;;;;;;17.64;58.44;96879.47;6195496;28;20037;-74
2023/08/16 01:24:08;;;;;;;18.65;8.10;;;;;;;17.71;58.16;96880.56;6199458;28;20414;-73
2023/08/16 01:27:18;;;;;;;17.17;7.30;;;;;;;17.77;58.16;96876.47;6198552;28;20046;-74
2023/08/16 01:30:24;;;;;;;13.20;7.07;;;;;;;17.87;58.07;96878.16;6195091;28;20038;-74
2023/08/16 01:33:29;;;;;;;14.95;7.65;;;;;;;17.96;57.85;96871.13;6179625;28;20616;-73
2023/08/16 01:36:31;;;;;;;18.73;8.05;;;;;;;18.06;57.53;96877.28;6195343;28;20413;-74
2023/08/16 01:39:32;;;;;;;17.42;7.53;;;;;;;18.13;57.50;96882.84;6198956;28;20514;-75
2023/08/16 01:42:47;;;;;;;21.27;7.70;;;;;;;18.23;57.19;96881.00;6181073;28;20414;-74
2023/08/16 01:45:54;;;;;;;18.17;7.70;;;;;;;18.19;57.23;96874.25;6197024;28;20080;-74
2023/08/16 01:48:59;;;;;;;18.30;7.15;;;;;;;18.24;57.16;96881.81;6197539;28;20042;-73
2023/08/16 01:52:03;;;;;;;19.98;7.80;;;;;;;18.25;57.37;96884.31;6184021;28;20052;-74
2023/08/16 01:55:05;;;;;;;33.10;14.50;;;;;;;18.24;57.45;96877.34;6196196;28;20413;-74
2023/08/16 01:58:07;;;;;;;31.50;9.65;;;;;;;18.23;57.73;96878.31;6199515;28;20072;-75
2023/08/16 02:01:15;;;;;;;40.40;9.82;;;;;;;18.20;57.63;96875.94;6179735;28;20038;-75
2023/08/16 02:04:21;;;;;;;27.30;8.75;;;;;;;18.22;57.74;96879.28;6198645;28;20030;-74
2023/08/16 02:07:23;;;;;;;;;;;;;;;18.27;57.17;96881.53;6199894;28;20452;-74
2023/08/16 02:10:29;;;;;;;32.08;8.38;;;;;;;18.32;57.38;96877.44;6191982;28;19981;-75
2023/08/16 02:13:30;;;;;;;;;;;;;;;18.36;56.58;96884.13;6196514;28;20513;-73
2023/08/16 02:16:36;;;;;;;23.80;8.45;;;;;;;18.48;57.01;96889.25;6197515;28;19928;-74
2023/08/16 02:19:59;;;;;;;12.32;6.75;;;;;;;18.52;56.83;96877.34;6177254;28;20038;-73
2023/08/16 02:23:03;;;;;;;24.88;8.20;;;;;;;18.63;56.76;96890.47;6202444;28;20041;-74
2023/08/16 02:26:09;;;;;;;20.73;8.10;;;;;;;18.68;57.18;96874.84;6194375;28;20053;-73
2023/08/16 02:29:17;;;;;;;24.27;8.73;;;;;;;18.76;56.86;96892.78;6194095;28;20094;-73
2023/08/16 02:32:24;;;;;;;23.90;8.18;;;;;;;18.78;57.24;96886.31;6195374;28;20498;-73
2023/08/16 02:35:28;;;;;;;17.88;7.57;;;;;;;18.90;57.05;96894.09;6192736;28;20108;-73
2023/08/16 02:38:29;;;;;;;23.90;8.63;;;;;;;18.98;56.82;96889.69;6197225;28;20039;-72
2023/08/16 02:41:31;;;;;;;26.58;8.93;;;;;;;19.05;56.45;96890.78;6193812;28;20037;-74
2023/08/16 02:44:35;;;;;;;29.90;10.38;;;;;;;19.08;56.64;96881.63;6201104;28;20034;-73
2023/08/16 02:47:41;;;;;;;24.75;9.23;;;;;;;19.15;57.33;96888.03;6199277;28;20042;-74
2023/08/16 02:50:45;;;;;;;24.27;10.13;;;;;;;19.18;56.77;96895.72;6195769;28;20124;-74
2023/08/16 02:53:50;;;;;;;30.42;11.32;;;;;;;19.18;56.77;96898.38;6197181;28;20042;-73
2023/08/16 02:56:55;;;;;;;36.50;11.50;;;;;;;19.18;56.79;96898.38;6181834;28;20077;-75
2023/08/16 03:00:02;;;;;;;26.65;10.23;;;;;;;19.12;57.38;96892.81;6199079;28;20046;-73
2023/08/16 03:03:11;;;;;;;37.13;11.15;;;;;;;19.12;57.09;96899.00;6183881;28;20057;-73
2023/08/16 03:06:15;;;;;;;30.00;10.80;;;;;;;19.07;56.98;96880.78;6200122;28;20054;-75
2023/08/16 03:09:21;;;;;;;28.60;10.48;;;;;;;18.90;57.52;96873.59;6182639;28;20417;-75
2023/08/16 03:12:26;;;;;;;20.85;9.85;;;;;;;19.03;57.93;96883.91;6201110;28;20034;-74
2023/08/16 03:15:30;;;;;;;25.15;10.30;;;;;;;19.10;57.78;96890.31;6203455;28;20037;-74
2023/08/16 03:18:32;;;;;;;24.67;9.82;;;;;;;19.20;57.54;96887.56;6203727;28;20408;-74
2023/08/16 03:21:39;;;;;;;24.77;10.60;;;;;;;19.31;57.03;96881.16;6201880;28;20038;-72
2023/08/16 03:24:46;;;;;;;24.98;9.48;;;;;;;19.42;57.36;96889.78;6203770;28;20043;-74
2023/08/16 03:27:52;;;;;;;22.77;9.90;;;;;;;19.51;56.96;96882.66;6198408;28;20702;-72
2023/08/16 03:30:54;;;;;;;28.05;9.98;;;;;;;19.64;56.73;96876.91;6209822;28;20037;-72
2023/08/16 03:33:58;;;;;;;20.10;9.45;;;;;;;19.82;56.56;96887.59;6206035;28;20133;-74
2023/08/16 03:37:01;;;;;;;22.27;8.48;;;;;;;19.94;56.00;96889.00;6206727;28;20474;-74
2023/08/16 03:40:05;;;;;;;27.60;10.20;;;;;;;20.11;55.24;96885.41;6209865;28;20038;-74
2023/08/16 03:43:09;;;;;;;24.98;8.00;;;;;;;20.33;54.50;96893.88;6200038;28;20049;-73
2023/08/16 03:46:20;;;;;;;17.80;8.10;;;;;;;20.61;52.80;96898.03;6182971;28;20041;-73
2023/08/16 03:49:22;;;;;;;16.92;6.90;;;;;;;20.89;52.07;96903.16;6180796;28;20042;-74
2023/08/16 03:52:31;;;;;;;14.68;6.15;;;;;;;21.13;49.71;96905.03;6203998;28;20505;-73
2023/08/16 03:55:34;;;;;;;13.98;6.15;;;;;;;21.39;48.86;96891.53;6199681;28;20042;-74
2023/08/16 03:58:41;;;;;;;13.15;4.95;;;;;;;21.79;47.62;96903.22;6201109;28;20509;-74
2023/08/16 04:01:50;;;;;;;14.02;5.70;;;;;;;22.09;46.48;96900.84;6200995;28;20042;-75
2023/08/16 04:05:06;;;;;;;6.85;4.75;;;;;;;22.25;45.83;96903.53;6199021;28;20038;-73
2023/08/16 04:08:10;;;;;;;10.68;4.63;;;;;;;22.34;45.14;96891.78;6186948;28;20498;-73
2023/08/16 04:11:14;;;;;;;7.50;5.05;;;;;;;22.45;44.47;96905.78;6203771;28;20038;-73
2023/08/16 04:14:18;;;;;;;7.22;4.30;;;;;;;22.50;44.17;96903.44;6200774;28;20399;-73
2023/08/16 04:17:22;;;;;;;6.25;4.15;;;;;;;22.56;43.80;96905.41;6199972;28;20077;-75
2023/08/16 04:20:24;;;;;;;9.63;4.60;;;;;;;22.62;43.61;96904.75;6184574;28;20141;-73
2023/08/16 04:23:25;;;;;;;7.28;4.50;;;;;;;22.75;43.10;96910.38;6168836;28;20038;-73
2023/08/16 04:26:29;;;;;;;6.55;4.00;;;;;;;22.84;42.60;96912.03;6185009;28;20045;-72
2023/08/16 04:29:33;;;;;;;7.22;3.70;;;;;;;22.92;42.29;96899.56;6204176;28;20042;-74
2023/08/16 04:32:39;;;;;;;11.57;4.03;;;;;;;23.03;41.96;96901.88;6202617;28;20188;-75
2023/08/16 04:35:45;;;;;;;7.60;4.00;;;;;;;23.23;41.21;96913.81;6198430;28;20426;-74
2023/08/16 04:38:52;;;;;;;5.30;3.58;;;;;;;23.36;41.06;96909.72;6195310;28;20082;-74
2023/08/16 04:41:55;;;;;;;6.60;3.47;;;;;;;23.39;40.85;96909.38;6199103;28;20034;-75
2023/08/16 04:44:56;;;;;;;6.05;4.47;;;;;;;23.53;40.54;96908.59;6196191;28;20402;-74
2023/08/16 04:48:01;;;;;;;6.93;3.75;;;;;;;23.60;40.73;96904.16;6199521;28;20046;-74
2023/08/16 04:51:07;;;;;;;8.70;3.63;;;;;;;23.74;40.90;96910.63;6200610;28;20042;-75
2023/08/16 04:54:12;;;;;;;8.77;3.30;;;;;;;23.97;40.31;96906.03;6196029;28;20057;-73
2023/08/16 04:57:16;;;;;;;7.40;4.03;;;;;;;24.44;39.76;96917.50;6197363;28;20050;-74
2023/08/16 05:00:19;;;;;;;5.78;3.67;;;;;;;27.41;34.97;96915.88;6199870;28;20504;-75
2023/08/16 05:03:26;;;;;;;7.80;3.35;;;;;;;31.77;29.08;96920.66;6199324;28;20050;-75
2023/08/16 05:06:32;;;;;;;3.90;2.83;;;;;;;35.45;24.79;96936.84;6197011;28;20046;-75
2023/08/16 05:09:36;;;;;;;4.18;2.83;;;;;;;38.18;21.60;96944.53;6201898;28;21846;-75
2023/08/16 05:12:41;;;;;;;7.18;2.75;;;;;;;40.38;19.38;96938.97;6198058;28;20357;-75
2023/08/16 05:15:46;;;;;;;6.43;2.88;;;;;;;42.09;17.05;96947.69;6197438;28;20050;-76
2023/08/16 05:18:52;;;;;;;4.15;2.60;;;;;;;42.74;16.45;96950.47;6202359;28;20428;-76
2023/08/16 05:21:57;;;;;;;6.57;2.38;;;;;;;43.64;15.58;96931.50;6200404;28;20497;-76
2023/08/16 05:24:58;;;;;;;2.40;2.17;;;;;;;45.01;14.62;96942.25;6201581;28;20433;-76
2023/08/16 05:28:08;;;;;;;4.88;2.33;;;;;;;46.03;13.63;96943.97;6199451;28;20062;-75
2023/08/16 05:31:15;;;;;;;3.63;1.77;;;;;;;46.91;13.05;96939.88;6199823;28;20046;-75
2023/08/16 05:34:24;;;;;;;3.08;1.80;;;;;;;47.75;12.38;96937.31;6200242;28;20042;-75
2023/08/16 05:37:30;;;;;;;4.55;2.28;;;;;;;47.92;11.69;96950.34;6200969;28;20374;-77
2023/08/16 05:40:38;;;;;;;5.13;2.00;;;;;;;48.09;11.85;96939.00;6187412;28;20064;-76
2023/08/16 05:43:44;;;;;;;2.45;1.73;;;;;;;48.51;11.40;96945.38;6214843;28;20120;-77
2023/08/16 05:46:51;;;;;;;5.38;2.15;;;;;;;48.96;11.58;96943.75;6205415;28;20053;-76
2023/08/16 05:49:58;;;;;;;3.63;1.67;;;;;;;49.72;11.09;96942.22;6235086;28;20042;-79
2023/08/16 05:53:05;;;;;;;5.65;1.70;;;;;;;50.41;10.61;96939.44;6237259;28;20038;-77
2023/08/16 05:56:11;;;;;;;4.15;1.92;;;;;;;51.04;9.98;96945.13;6220630;28;20056;-79
2023/08/16 05:59:16;;;;;;;2.30;1.23;;;;;;;52.00;9.35;96952.19;6201332;28;20125;-76
2023/08/16 06:02:23;;;;;;;5.65;1.55;;;;;;;52.33;9.00;96948.06;6182804;28;20096;-76
2023/08/16 06:05:27;;;;;;;3.25;1.20;;;;;;;52.27;8.91;96949.53;6202844;28;20597;-76
2023/08/16 06:08:36;;;;;;;3.88;1.20;;;;;;;51.89;9.13;96945.53;6207487;28;20034;-74
2023/08/16 06:11:41;;;;;;;3.15;1.30;;;;;;;51.79;9.37;96948.94;6202931;28;20042;-75
2023/08/16 06:14:43;;;;;;;3.17;1.38;;;;;;;51.15;9.13;96951.00;6201032;28;20506;-76
2023/08/16 06:17:48;;;;;;;3.17;1.13;;;;;;;50.26;9.27;96950.22;6181126;28;20125;-77
2023/08/16 06:20:55;;;;;;;1.85;1.42;;;;;;;47.16;11.42;96938.97;6200623;28;20069;-74
2023/08/16 06:23:59;;;;;;;4.00;1.30;;;;;;;43.91;13.16;96925.06;6203024;28;20548;-74
2023/08/16 06:27:10;;;;;;;5.10;1.60;;;;;;;42.90;14.13;96919.75;6198041;28;20054;-75
2023/08/16 06:30:13;;;;;;;2.92;1.70;;;;;;;43.50;14.04;96922.38;6201624;28;20424;-75
2023/08/16 06:33:17;;;;;;;3.65;1.45;;;;;;;44.88;13.39;96921.78;6198196;28;20050;-74
2023/08/16 06:36:24;;;;;;;2.80;1.58;;;;;;;46.55;11.86;96927.22;6202834;28;20071;-74
2023/08/16 06:39:29;;;;;;;3.13;1.60;;;;;;;47.44;11.22;96935.72;6205617;28;20128;-75
2023/08/16 06:42:34;;;;;;;2.78;1.75;;;;;;;47.83;11.21;96928.09;6211709;28;20513;-75
2023/08/16 06:45:38;;;;;;;4.07;1.60;;;;;;;49.19;10.81;96936.53;6202940;28;20115;-75
2023/08/16 06:48:44;;;;;;;3.97;1.73;;;;;;;50.70;9.64;96929.81;6202492;28;20524;-76
2023/08/16 06:51:50;;;;;;;2.70;1.38;;;;;;;51.97;8.98;96927.66;6201843;28;20039;-74
2023/08/16 06:54:54;;;;;;;2.80;1.42;;;;;;;52.53;8.16;96935.63;6201887;28;20529;-74
2023/08/16 06:58:01;;;;;;;1.40;1.30;;;;;;;51.61;8.09;96935.28;6204276;28;20049;-75
2023/08/16 07:01:08;;;;;;;2.35;1.50;;;;;;;49.95;8.97;96922.13;6201245;28;20417;-73
2023/08/16 07:04:15;;;;;;;3.17;1.92;;;;;;;49.31;9.04;96930.13;6200831;28;20046;-73
2023/08/16 07:07:19;;;;;;;3.45;1.60;;;;;;;49.11;9.32;96911.50;6197928;28;20203;-75
2023/08/16 07:10:23;;;;;;;2.72;1.67;;;;;;;47.33;10.46;96912.16;6203246;28;20120;-71
2023/08/16 07:13:27;;;;;;;2.55;1.63;;;;;;;46.34;11.41;96908.44;6202508;28;20136;-71
2023/08/16 07:16:38;;;;;;;2.47;1.77;;;;;;;47.77;10.70;96915.50;6199993;28;20042;-69
2023/08/16 07:19:43;;;;;;;3.95;1.70;;;;;;;46.71;10.65;96908.88;6199313;28;20050;-68
2023/08/16 07:22:46;;;;;;;4.78;2.03;;;;;;;43.60;12.21;96900.03;6201193;28;20041;-70
2023/08/16 07:25:54;;;;;;;4.97;1.90;;;;;;;41.18;14.67;96893.44;6197040;28;20054;-70
2023/08/16 07:28:55;;;;;;;2.22;1.65;;;;;;;39.58;15.74;96889.69;6203398;28;20042;-69
2023/08/16 07:32:02;;;;;;;1.88;1.55;;;;;;;38.48;16.52;96887.91;6177311;28;20192;-68
2023/08/16 07:35:07;;;;;;;2.58;1.98;;;;;;;36.96;17.56;96884.63;6191163;28;20069;-71
2023/08/16 07:38:12;;;;;;;5.55;2.25;;;;;;;36.39;18.05;96886.22;6201774;28;20050;-68
2023/08/16 07:41:15;;;;;;;4.22;2.00;;;;;;;37.23;17.47;96874.34;6203067;28;20089;-70
2023/08/16 07:44:21;;;;;;;3.15;2.08;;;;;;;39.55;15.67;96889.41;6202212;28;20129;-70
2023/08/16 07:47:28;;;;;;;3.45;1.90;;;;;;;42.52;13.87;96887.53;6200996;28;20489;-72
2023/08/16 07:50:36;;;;;;;3.60;1.60;;;;;;;45.14;12.34;96901.66;6201364;28;20046;-72
2023/08/16 07:53:45;;;;;;;2.75;1.98;;;;;;;43.91;12.92;96894.56;6200421;28;20049;-75
2023/08/16 07:56:53;;;;;;;2.80;1.80;;;;;;;42.70;13.31;96898.81;6206226;28;20038;-69
2023/08/16 08:00:07;;;;;;;4.93;2.03;;;;;;;43.86;13.07;96893.88;6195861;28;20077;-68
2023/08/16 08:03:11;;;;;;;5.88;2.17;;;;;;;45.23;12.16;96894.16;6200701;28;20052;-69
2023/08/16 08:06:15;;;;;;;5.20;2.17;;;;;;;45.54;12.11;96896.03;6198115;28;20049;-71
2023/08/16 08:09:22;;;;;;;3.35;2.00;;;;;;;43.85;12.89;96892.22;6198744;28;20061;-68
2023/08/16 08:12:26;;;;;;;3.83;1.95;;;;;;;42.09;14.44;96884.13;6196177;28;20053;-67
2023/08/16 08:15:30;;;;;;;5.43;2.45;;;;;;;42.51;13.88;96885.06;6197298;28;20034;-68
2023/08/16 08:18:34;;;;;;;5.50;2.45;;;;;;;42.17;13.87;96888.94;6191418;28;20035;-69
2023/08/16 08:21:38;;;;;;;4.35;2.45;;;;;;;43.80;12.87;96889.59;6197680;28;20041;-68
2023/08/16 08:24:45;;;;;;;3.65;1.90;;;;;;;46.19;11.63;96885.88;6199410;28;20046;-70
2023/08/16 08:27:51;;;;;;;5.35;2.28;;;;;;;47.64;10.90;96897.88;6200460;28;20050;-66
2023/08/16 08:30:53;;;;;;;4.35;2.22;;;;;;;48.08;10.14;96907.53;6198158;28;20069;-68
2023/08/16 08:34:00;;;;;;;2.72;2.03;;;;;;;47.88;10.50;96911.16;6197717;28;20042;-69
2023/08/16 08:37:03;;;;;;;3.35;1.80;;;;;;;48.02;10.25;96911.69;6197372;28;20041;-68
2023/08/16 08:40:06;;;;;;;3.22;1.90;;;;;;;47.72;9.99;96898.97;6199748;28;20042;-71
2023/08/16 08:43:10;;;;;;;3.70;2.33;;;;;;;48.38;10.13;96903.78;6196424;28;20033;-68
2023/08/16 08:46:16;;;;;;;3.17;2.08;;;;;;;47.46;10.74;96894.41;6198931;28;20644;-68
2023/08/16 08:49:20;;;;;;;4.05;2.13;;;;;;;47.18;10.51;96886.53;6196189;28;20046;-68
2023/08/16 08:52:25;;;;;;;4.40;2.30;;;;;;;45.13;12.04;96883.31;6196559;28;20038;-69
2023/08/16 08:55:33;;;;;;;6.65;2.40;;;;;;;44.69;12.48;96874.81;6197372;28;20536;-70
2023/08/16 08:58:40;;;;;;;3.47;2.15;;;;;;;45.09;12.07;96871.22;6195534;28;20133;-68
2023/08/16 09:01:44;;;;;;;5.20;2.35;;;;;;;45.20;11.38;96886.47;6192731;28;20520;-73
2023/08/16 09:04:48;;;;;;;3.83;2.28;;;;;;;43.05;13.17;96877.91;6194484;28;20046;-75
2023/08/16 09:07:52;;;;;;;3.97;2.78;;;;;;;42.04;13.62;96864.84;6201617;28;20530;-73
2023/08/16 09:10:59;;;;;;;5.07;2.50;;;;;;;43.01;13.37;96871.38;6201153;28;20140;-74
2023/08/16 09:14:08;;;;;;;2.63;2.35;;;;;;;44.35;12.47;96883.81;6203331;28;20053;-73
2023/08/16 09:17:14;;;;;;;5.72;2.70;;;;;;;44.30;12.62;96867.25;6184022;28;20446;-77
2023/08/16 09:20:16;;;;;;;3.58;2.47;;;;;;;43.19;13.01;96867.66;6201397;28;20212;-74
2023/08/16 09:23:21;;;;;;;4.97;2.47;;;;;;;42.96;13.22;96868.69;6205169;28;20069;-75
2023/08/16 09:26:26;;;;;;;4.35;3.03;;;;;;;43.23;13.21;96859.53;6189651;28;20176;-74
2023/08/16 09:29:33;;;;;;;5.97;2.67;;;;;;;42.75;13.71;96874.66;6195789;28;20042;-74
2023/08/16 09:32:39;;;;;;;2.60;2.10;;;;;;;40.93;14.99;96868.91;6198551;28;20538;-74
2023/08/16 09:35:52;;;;;;;2.45;2.10;;;;;;;38.46;17.16;96862.63;6194970;28;20058;-73
2023/08/16 09:39:11;;;;;;;10.48;2.20;;;;;;;37.44;17.46;96864.22;6200914;28;20501;-74
2023/08/16 09:42:17;;;;;;;4.90;2.50;;;;;;;37.75;17.97;96854.13;6200457;28;20034;-73
2023/08/16 09:45:34;;;;;;;4.25;1.60;;;;;;;37.27;18.21;96858.16;6208659;28;20073;-74
2023/08/16 09:48:36;;;;;;;4.05;2.13;;;;;;;36.50;19.01;96860.53;6184016;28;20046;-74
2023/08/16 09:51:41;;;;;;;4.00;1.45;;;;;;;35.85;19.78;96858.97;6198291;28;20054;-74
2023/08/16 09:54:48;;;;;;;5.70;2.00;;;;;;;35.42;20.51;96856.09;6206657;28;20050;-73
2023/08/16 09:57:52;;;;;;;3.42;1.98;;;;;;;34.69;21.25;96869.19;6199826;28;20540;-73
2023/08/16 10:01:00;;;;;;;4.97;2.40;;;;;;;34.04;21.72;96872.56;6195600;28;21820;-73
2023/08/16 10:04:04;;;;;;;4.55;2.15;;;;;;;34.35;21.50;96874.69;6213660;28;20049;-73
2023/08/16 10:07:08;;;;;;;2.58;1.60;;;;;;;34.69;21.34;96869.19;6205624;28;20046;-74
2023/08/16 10:10:11;;;;;;;3.10;1.93;;;;;;;34.69;20.97;96877.38;6201510;28;20030;-74
2023/08/16 10:13:13;;;;;;;;;;;;;;;35.12;20.71;96873.00;6194591;28;20046;-75
2023/08/16 10:16:21;;;;;;;2.92;1.80;;;;;;;35.08;20.52;96872.69;6197417;28;19921;-73
2023/08/16 10:19:34;;;;;;;2.08;1.38;;;;;;;35.25;20.51;96882.72;6199728;28;20957;-74
2023/08/16 10:22:41;;;;;;;4.72;1.65;;;;;;;35.09;20.48;96871.59;6195191;28;20450;-73
2023/08/16 10:25:48;;;;;;;3.28;1.70;;;;;;;34.70;21.12;96868.09;6200632;28;20556;-74
2023/08/16 10:28:55;;;;;;;2.03;1.70;;;;;;;34.68;20.89;96885.81;6194874;28;20408;-74
2023/08/16 10:32:02;;;;;;;4.05;1.90;;;;;;;34.66;20.98;96875.16;6199745;28;20053;-74
2023/08/16 10:35:07;;;;;;;5.15;1.80;;;;;;;35.23;20.02;96874.78;6198415;28;20041;-72
2023/08/16 10:38:18;;;;;;;2.30;1.52;;;;;;;35.50;20.10;96880.25;6197589;28;20042;-74
2023/08/16 10:41:25;;;;;;;3.08;1.70;;;;;;;35.59;20.11;96877.91;6194824;28;20493;-73
2023/08/16 10:44:32;;;;;;;5.10;2.00;;;;;;;35.33;20.51;96879.53;6194948;28;20053;-73
2023/08/16 10:47:39;;;;;;;5.10;1.90;;;;;;;34.52;21.07;96890.22;6194218;28;20038;-74
2023/08/16 10:50:43;;;;;;;3.17;1.95;;;;;;;34.31;21.15;96889.09;6205468;28;20038;-75
2023/08/16 10:53:44;;;;;;;3.70;1.67;;;;;;;34.07;21.48;96878.38;6204252;28;20482;-72
2023/08/16 10:56:50;;;;;;;6.07;2.35;;;;;;;33.75;21.81;96875.38;6204353;28;20492;-72
2023/08/16 11:00:05;;;;;;;5.25;2.20;;;;;;;33.17;22.66;96888.19;6195132;28;20461;-73
2023/08/16 11:03:18;;;;;;;6.00;3.10;;;;;;;31.80;24.37;96886.72;6202817;28;20108;-73
2023/08/16 11:06:22;;;;;;;;;;;;;;;31.33;25.00;96886.56;6196114;28;20042;-74
2023/08/16 11:09:30;;;;;;;2.75;1.95;;;;;;;30.23;25.87;96882.00;6192798;28;19933;-73
2023/08/16 11:12:37;;;;;;;4.78;2.38;;;;;;;29.86;26.88;96883.78;6212508;28;20521;-74
2023/08/16 11:15:40;;;;;;;3.60;2.38;;;;;;;29.59;27.18;96869.59;6206558;28;20053;-74
2023/08/16 11:18:42;;;;;;;4.93;2.67;;;;;;;29.33;27.47;96882.28;6203716;28;20061;-74
2023/08/16 11:21:47;;;;;;;4.75;2.50;;;;;;;29.09;27.79;96876.53;6203889;28;20050;-73
2023/08/16 11:24:50;;;;;;;4.18;2.42;;;;;;;28.98;28.31;96879.06;6196521;28;20046;-73
2023/08/16 11:28:00;;;;;;;4.95;2.60;;;;;;;28.83;28.44;96871.25;6203037;28;20049;-74
2023/08/16 11:31:05;;;;;;;4.82;2.85;;;;;;;28.94;28.59;96870.56;6204634;28;20526;-74
2023/08/16 11:34:13;;;;;;;5.75;2.47;;;;;;;28.82;28.48;96883.13;6198026;28;20039;-73
2023/08/16 11:37:19;;;;;;;4.07;2.35;;;;;;;28.88;28.43;96885.78;6201503;28;20062;-74
2023/08/16 11:40:24;;;;;;;3.85;2.28;;;;;;;29.03;28.54;96879.31;6197579;28;20050;-73
2023/08/16 11:43:31;;;;;;;3.30;2.20;;;;;;;29.21;28.25;96886.69;6197116;28;20054;-74
2023/08/16 11:46:44;;;;;;;3.63;2.50;;;;;;;29.39;28.33;96886.81;6206688;28;20050;-74
2023/08/16 11:49:51;;;;;;;8.52;2.53;;;;;;;29.54;28.08;96895.44;6203122;28;20614;-74
2023/08/16 11:52:56;;;;;;;4.88;1.88;;;;;;;29.52;27.93;96885.88;6202631;28;20050;-73
2023/08/16 11:56:02;;;;;;;7.35;3.22;;;;;;;29.73;27.58;96898.28;6205776;28;20038;-74
2023/08/16 11:59:06;;;;;;;8.30;3.40;;;;;;;29.90;27.71;96888.53;6200311;28;20034;-74
2023/08/16 12:02:13;;;;;;;13.20;8.07;;;;;;;29.97;27.15;96900.16;6200401;28;20506;-75
2023/08/16 12:05:21;;;;;;;6.38;3.50;;;;;;;30.15;27.08;96899.38;6200751;28;20383;-73
2023/08/16 12:08:22;;;;;;;5.72;3.05;;;;;;;30.21;27.26;96889.53;6206278;28;20050;-74
2023/08/16 12:11:34;;;;;;;5.82;2.92;;;;;;;30.28;27.01;96890.31;6197063;28;20046;-74
2023/08/16 12:14:40;;;;;;;3.50;2.10;;;;;;;30.32;27.32;96896.09;6203241;28;20065;-72
2023/08/16 12:17:47;;;;;;;4.43;2.10;;;;;;;30.21;27.28;96894.97;6206638;28;20561;-74
2023/08/16 12:20:52;;;;;;;3.22;2.30;;;;;;;30.10;27.64;96892.97;6196376;28;20089;-73
2023/08/16 12:23:55;;;;;;;4.63;2.58;;;;;;;29.97;27.42;96900.16;6198125;28;20041;-73
2023/08/16 12:26:58;;;;;;;4.00;2.38;;;;;;;29.77;27.80;96888.66;6199731;28;20152;-74
2023/08/16 12:30:04;;;;;;;4.38;2.42;;;;;;;29.73;27.77;96888.25;6197706;28;20042;-73
2023/08/16 12:33:09;;;;;;;3.60;2.55;;;;;;;29.65;27.84;96887.72;6206399;28;20053;-73
2023/08/16 12:36:15;;;;;;;4.97;2.38;;;;;;;29.62;27.61;96893.53;6202973;28;20076;-73
2023/08/16 12:39:16;;;;;;;4.80;2.40;;;;;;;29.75;27.40;96890.75;6195583;28;20042;-73
2023/08/16 12:42:23;;;;;;;3.90;2.78;;;;;;;29.44;27.57;96887.00;6195902;28;20073;-73
2023/08/16 12:45:32;;;;;;;5.72;3.55;;;;;;;29.46;27.48;96884.03;6196274;28;20046;-74
2023/08/16 12:48:35;;;;;;;7.25;2.60;;;;;;;29.48;27.39;96885.50;6204681;28;20367;-73
2023/08/16 12:51:43;;;;;;;4.35;2.38;;;;;;;29.55;27.53;96869.16;6197990;28;20421;-74
2023/08/16 12:54:49;;;;;;;4.88;2.83;;;;;;;29.66;27.51;96881.22;6197814;28;20050;-74
2023/08/16 12:57:54;;;;;;;5.82;2.70;;;;;;;29.53;27.62;96882.97;6209020;28;20054;-72
2023/08/16 13:01:00;;;;;;;3.67;2.63;;;;;;;29.50;27.78;96882.56;6205497;28;20038;-73
2023/08/16 13:04:04;;;;;;;3.22;2.15;;;;;;;29.41;27.49;96876.56;6214132;28;20064;-73
2023/08/16 13:07:10;;;;;;;3.20;2.72;;;;;;;29.44;26.79;96878.88;6199335;28;20085;-74
2023/08/16 13:10:12;;;;;;;2.97;2.67;;;;;;;29.20;27.01;96876.91;6196071;28;20449;-74
2023/08/16 13:13:16;;;;;;;3.22;2.45;;;;;;;29.18;27.46;96868.16;6200561;28;20042;-74
2023/08/16 13:16:21;;;;;;;4.93;2.78;;;;;;;29.22;27.39;96872.13;6201619;28;20042;-74
2023/08/16 13:19:25;;;;;;;6.63;3.20;;;;;;;29.14;27.51;96872.38;6205524;28;20074;-75
2023/08/16 13:22:31;;;;;;;6.15;3.47;;;;;;;29.06;27.75;96870.75;6196469;28;20164;-74
2023/08/16 13:25:38;;;;;;;4.75;3.13;;;;;;;29.05;27.85;96866.38;6200870;28;20035;-73
2023/08/16 13:28:42;;;;;;;5.95;2.97;;;;;;;29.05;27.94;96869.09;6196320;28;20065;-73
2023/08/16 13:31:44;;;;;;;3.47;3.17;;;;;;;28.93;28.07;96877.03;6195480;28;20097;-73
2023/08/16 13:34:45;;;;;;;4.25;2.95;;;;;;;28.82;28.04;96864.16;6183361;28;20034;-73
2023/08/16 13:37:49;;;;;;;4.20;2.45;;;;;;;28.72;28.13;96869.19;6197809;28;20050;-75
2023/08/16 13:40:53;;;;;;;3.20;2.83;;;;;;;28.58;28.14;96863.00;6195557;28;20513;-75
2023/08/16 13:43:58;;;;;;;4.88;3.45;;;;;;;28.38;28.52;96863.03;6195770;28;20046;-75
2023/08/16 13:47:04;;;;;;;6.90;4.13;;;;;;;28.28;28.79;96862.63;6195847;28;20046;-73
2023/08/16 13:50:08;;;;;;;6.80;3.83;;;;;;;28.09;28.82;96854.34;6206354;28;20041;-74
2023/08/16 13:53:09;;;;;;;6.75;3.08;;;;;;;28.02;29.04;96855.41;6208992;28;20418;-73
2023/08/16 13:56:15;;;;;;;3.38;3.08;;;;;;;27.76;29.41;96855.19;6197704;28;20054;-73
2023/08/16 13:59:17;;;;;;;3.97;2.75;;;;;;;27.49;29.82;96853.53;6204364;28;20040;-76
2023/08/16 14:02:25;;;;;;;4.78;3.10;;;;;;;27.37;29.74;96858.69;6192664;28;20042;-75
2023/08/16 14:05:32;;;;;;;6.40;3.90;;;;;;;27.36;29.99;96854.34;6199603;28;20045;-74
2023/08/16 14:08:33;;;;;;;5.43;3.72;;;;;;;27.18;30.11;96852.25;6199054;28;20048;-74
2023/08/16 14:11:35;;;;;;;6.40;4.00;;;;;;;27.10;30.34;96850.50;6204703;28;20044;-74
2023/08/16 14:14:38;;;;;;;6.38;3.70;;;;;;;27.04;30.28;96853.22;6195790;28;20454;-74
2023/08/16 14:17:47;;;;;;;6.53;3.17;;;;;;;26.99;30.47;96853.81;6196254;28;20054;-74
2023/08/16 14:20:51;;;;;;;3.97;3.08;;;;;;;26.94;30.63;96850.06;6205995;28;20129;-73
2023/08/16 14:23:54;;;;;;;8.02;3.47;;;;;;;26.88;30.85;96851.69;6193402;28;20157;-73
2023/08/16 14:26:59;;;;;;;3.67;3.03;;;;;;;26.86;31.04;96848.38;6197342;28;20050;-74
2023/08/16 14:30:00;;;;;;;5.80;3.60;;;;;;;26.85;30.65;96852.94;6195911;28;20154;-73
2023/08/16 14:33:05;;;;;;;4.95;3.25;;;;;;;26.80;30.88;96850.00;6197059;28;20056;-73